Meteo Giornale » Osservazioni meteo Stati Uniti (USA) » Camp Springs-Andrews

ore: 14:55 - Osservazioni Meteo Camp Springs-Andrews
Lat. 38° 49' N Lon. 76° 51' W Alt. 86 metri s.l.m.

nuvoloso

34 °C

Nuvoloso

Temp. 24 Ore

23 °C

35 °C

Ovest/Nord-Ovest

13 Km/h

Dew point 21 °C

Umidità 46 %

Visibilità  10 Km

Il sole sorge alle ore 06:36

Il sole tramonta alle ore 19:38

Data e Ora Cielo e Fenomeni T °C DP °C Um. % Pres. hPa Vis. km Vento km/h
Oggi h: 14:55 nuvoloso Nuvoloso 34 21 46 1014 10 O/NO 13
Oggi h: 13:55 nuvoloso Nuvoloso 35 22 47 1014 10 O 13
Oggi h: 12:55 molto_nuvoloso Molto Nuvoloso 34 21 46 1015 10 O/NO 7.4
Oggi h: 11:55 nuvoloso Nuvoloso 33 22 52 1015 10 O 14.8
Oggi h: 10:55 nuvoloso Nuvoloso 32 22 55 1016 10 O 11.1
Oggi h: 09:55 nuvoloso Nuvoloso 31 22 58 1016 10 O/SO 13
Oggi h: 08:55 nuvoloso Nuvoloso 28 23 74 1016 10 O/SO 13
Oggi h: 07:55 molto_nuvoloso Molto Nuvoloso 26 22 78 1016 10 SO 9.3
Oggi h: 06:55 molto_nuvoloso Molto Nuvoloso 23 22 94 1016 10 N 5.5
Oggi h: 05:55 nuvoloso Nuvoloso 24 22 88 1016 10 O/SO 7.4
Oggi h: 04:55 molto_nuvoloso Molto Nuvoloso 24 22 88 1016 10 SO 9.3
Oggi h: 03:55 molto_nuvoloso Molto Nuvoloso 25 23 88 1016 10 SO 9.3
Oggi h: 02:55 molto_nuvoloso Molto Nuvoloso 24 22 88 1016 10 SO 9.3
Oggi h: 01:55 nuvoloso Nuvoloso 26 24 88 1017 10 SO 11.1
Oggi h: 00:55 molto_nuvoloso Molto Nuvoloso 24 22 88 1017 10 N 5.5
Ieri h: 23:55 nuvoloso Nuvoloso 24 23 94 1017 10 N 5.5
Ieri h: 22:55 nuvoloso Nuvoloso 25 23 88 1017 10 N 5.5
Ieri h: 21:55 molto_nuvoloso Molto Nuvoloso 25 23 88 1017 10 S/SE 7.4
Ieri h: 20:55 molto_nuvoloso Molto Nuvoloso 25 22 83 1017 10 N 5.5
Ieri h: 19:55 coperto Coperto 26 23 83 1017 10 SE 11.1
Ieri h: 18:55 molto_nuvoloso Molto Nuvoloso 27 23 78 1017 10 E/SE 11.1
Ieri h: 17:55 molto_nuvoloso Molto Nuvoloso 28 23 74 1017 10 E/SE 11.1
Ieri h: 16:55 molto_nuvoloso Molto Nuvoloso 30 22 62 1017 10 N 0
Ieri h: 15:55 molto_nuvoloso Molto Nuvoloso 29 22 66 1017 10 E 7.4